createdAt,value
2022-12-09T00:00:36.179Z,100693.94
2022-12-09T00:03:39.854Z,100695.81
2022-12-09T00:06:44.715Z,100694.94
2022-12-09T00:09:47.787Z,100701.28
2022-12-09T00:12:50.761Z,100700.44
2022-12-09T00:15:54.039Z,100704.00
2022-12-09T00:18:58.458Z,100712.94
2022-12-09T00:22:03.115Z,100705.88
2022-12-09T00:25:06.870Z,100709.50
2022-12-09T00:28:09.949Z,100699.78
2022-12-09T00:31:15.621Z,100700.72
2022-12-09T00:34:18.690Z,100701.66
2022-12-09T00:37:23.485Z,100699.84
2022-12-09T00:40:26.564Z,100712.28
2022-12-09T00:43:30.287Z,100711.41
2022-12-09T00:46:33.504Z,100706.19
2022-12-09T00:49:36.698Z,100710.63
2022-12-09T00:52:41.170Z,100718.69
2022-12-09T00:55:45.274Z,100722.28
2022-12-09T00:58:48.745Z,100728.53
2022-12-09T01:01:51.759Z,100737.38
2022-12-09T01:04:55.960Z,100737.47
2022-12-09T01:08:00.481Z,100740.97
2022-12-09T01:11:09.756Z,100742.78
2022-12-09T01:14:13.766Z,100734.81
2022-12-09T01:17:16.850Z,100734.72
2022-12-09T01:20:20.660Z,100739.19
2022-12-09T01:23:26.186Z,100731.19
2022-12-09T01:26:29.368Z,100732.97
2022-12-09T01:29:32.491Z,100730.31
2022-12-09T01:32:35.673Z,100729.41
2022-12-09T01:35:42.100Z,100727.63
2022-12-09T01:38:47.904Z,100733.78
2022-12-09T01:41:52.048Z,100727.63
2022-12-09T01:45:49.216Z,100730.28
2022-12-09T01:48:52.309Z,100737.31
2022-12-09T01:52:03.943Z,100736.38
2022-12-09T01:55:09.646Z,100739.97
2022-12-09T01:58:14.093Z,100739.03
2022-12-09T02:01:18.037Z,100735.50
2022-12-09T02:04:21.323Z,100734.66
2022-12-09T02:07:24.658Z,100737.31
2022-12-09T02:10:30.635Z,100743.56
2022-12-09T02:13:45.745Z,100737.38
2022-12-09T02:16:57.921Z,100745.38
2022-12-09T02:20:10.547Z,100744.50
2022-12-09T02:23:19.945Z,100740.97
2022-12-09T02:26:28.907Z,100731.19
2022-12-09T02:29:57.939Z,100732.94
2022-12-09T02:33:25.671Z,100738.25
2022-12-09T02:36:36.878Z,100732.97
2022-12-09T02:39:44.800Z,100729.50
2022-12-09T02:42:50.771Z,100738.38
2022-12-09T02:45:56.202Z,100754.34
2022-12-09T02:49:01.087Z,100751.75
2022-12-09T02:52:07.015Z,100746.44
2022-12-09T02:55:14.247Z,100741.16
2022-12-09T02:58:18.378Z,100746.50
2022-12-09T03:01:24.129Z,100742.13
2022-12-09T03:04:30.091Z,100739.47
2022-12-09T03:07:43.912Z,100742.03
2022-12-09T03:10:57.815Z,100738.50
2022-12-09T03:14:06.228Z,100737.69
2022-12-09T03:17:14.944Z,100743.84
2022-12-09T03:20:24.979Z,100734.16
2022-12-09T03:23:31.010Z,100736.81
2022-12-09T03:26:35.169Z,100736.81
2022-12-09T03:29:43.404Z,100744.78
2022-12-09T03:32:48.194Z,100739.47
2022-12-09T03:35:54.879Z,100742.13
2022-12-09T03:39:00.249Z,100747.44
2022-12-09T03:42:07.296Z,100749.16
2022-12-09T03:45:12.365Z,100754.47
2022-12-09T03:48:16.057Z,100745.56
2022-12-09T03:51:26.036Z,100750.03
2022-12-09T03:54:34.909Z,100751.81
2022-12-09T03:57:43.355Z,100749.16
2022-12-09T04:00:47.424Z,100750.97
2022-12-09T04:03:53.156Z,100752.69
2022-12-09T04:06:56.373Z,100738.50
2022-12-09T04:10:00.739Z,100742.13
2022-12-09T04:13:03.885Z,100737.69
2022-12-09T04:16:07.366Z,100743.00
2022-12-09T04:19:10.404Z,100736.81
2022-12-09T04:22:13.460Z,100733.19
2022-12-09T04:25:18.198Z,100733.19
2022-12-09T04:28:21.203Z,100733.19
2022-12-09T04:31:24.420Z,100731.41
2022-12-09T04:34:27.376Z,100727.88
2022-12-09T04:37:30.751Z,100732.34
2022-12-09T04:40:35.420Z,100726.16
2022-12-09T04:43:38.486Z,100734.16
2022-12-09T04:46:41.502Z,100723.59
2022-12-09T04:49:44.496Z,100736.88
2022-12-09T04:52:47.673Z,100731.63
2022-12-09T04:56:00.147Z,100735.06
2022-12-09T04:59:03.098Z,100737.81
2022-12-09T05:02:06.460Z,100740.47
2022-12-09T05:05:10.612Z,100738.69
2022-12-09T05:08:14.169Z,100736.94
2022-12-09T05:11:19.883Z,100736.09
2022-12-09T05:14:24.118Z,100740.53
2022-12-09T05:17:28.203Z,100738.81
2022-12-09T05:20:31.732Z,100748.59
2022-12-09T05:23:35.794Z,100745.94
2022-12-09T05:26:40.568Z,100747.72
2022-12-09T05:29:43.745Z,100735.34
2022-12-09T05:32:46.879Z,100738.00
2022-12-09T05:35:53.061Z,100744.13
2022-12-09T05:38:57.240Z,100738.81
2022-12-09T05:42:01.823Z,100737.88
2022-12-09T05:45:05.913Z,100734.34
2022-12-09T05:48:09.212Z,100742.25
2022-12-09T05:51:16.637Z,100740.53
2022-12-09T05:54:20.119Z,100747.56
2022-12-09T05:57:24.969Z,100749.31
2022-12-09T06:00:28.615Z,100744.00
2022-12-09T06:03:32.130Z,100745.69
2022-12-09T06:06:35.427Z,100743.03
2022-12-09T06:09:38.851Z,100727.16
2022-12-09T06:12:43.631Z,100742.22
2022-12-09T06:15:46.954Z,100744.88
2022-12-09T06:18:50.745Z,100740.38
2022-12-09T06:21:54.410Z,100746.56
2022-12-09T06:24:57.607Z,100745.69
2022-12-09T06:28:02.187Z,100750.19
2022-12-09T06:31:05.798Z,100749.31
2022-12-09T06:34:09.088Z,100749.31
2022-12-09T06:37:12.721Z,100749.41
2022-12-09T06:40:15.910Z,100754.75
2022-12-09T06:43:20.643Z,100756.50
2022-12-09T06:46:25.042Z,100760.09
2022-12-09T06:49:28.602Z,100754.84
2022-12-09T06:52:32.190Z,100753.06
2022-12-09T06:55:35.633Z,100756.63
2022-12-09T06:58:40.595Z,100768.13
2022-12-09T07:01:44.871Z,100761.06
2022-12-09T07:04:48.791Z,100760.25
2022-12-09T07:07:53.109Z,100770.88
2022-12-09T07:10:57.114Z,100758.50
2022-12-09T07:14:02.152Z,100756.72
2022-12-09T07:17:06.078Z,100757.72
2022-12-09T07:20:11.187Z,100766.63
2022-12-09T07:23:14.541Z,100770.13
2022-12-09T07:26:18.397Z,100772.78
2022-12-09T07:29:23.520Z,100767.44
2022-12-09T07:32:26.804Z,100770.88
2022-12-09T07:35:30.776Z,100784.09
2022-12-09T07:38:34.031Z,100777.78
2022-12-09T07:41:37.408Z,100778.56
2022-12-09T07:44:41.903Z,100784.69
2022-12-09T07:47:45.318Z,100781.06
2022-12-09T07:50:48.541Z,100777.50
2022-12-09T07:53:51.680Z,100772.16
2022-12-09T07:56:54.827Z,100775.69
2022-12-09T07:59:59.355Z,100787.19
2022-12-09T08:03:02.628Z,100789.84
2022-12-09T08:06:06.049Z,100782.81
2022-12-09T08:09:13.593Z,100783.72
2022-12-09T08:12:17.140Z,100775.75
2022-12-09T08:15:21.590Z,100780.16
2022-12-09T08:18:24.716Z,100780.16
2022-12-09T08:21:29.984Z,100779.34
2022-12-09T08:24:33.406Z,100776.69
2022-12-09T08:27:37.328Z,100783.88
2022-12-09T08:30:42.384Z,100775.03
2022-12-09T08:33:45.978Z,100775.13
2022-12-09T08:36:49.582Z,100779.47
2022-12-09T08:39:52.745Z,100776.03
2022-12-09T08:42:56.128Z,100774.31
2022-12-09T08:46:01.808Z,100780.56
2022-12-09T08:49:06.276Z,100773.47
2022-12-09T08:52:09.545Z,100774.31
2022-12-09T08:55:12.763Z,100778.78
2022-12-09T08:58:15.865Z,100783.22
2022-12-09T09:01:23.875Z,100783.31
2022-12-09T09:04:27.323Z,100791.34
2022-12-09T09:07:32.046Z,100794.00
2022-12-09T09:10:35.784Z,100789.63
2022-12-09T09:13:39.269Z,100791.34
2022-12-09T09:16:46.256Z,100794.94
2022-12-09T09:19:49.824Z,100793.22
2022-12-09T09:22:58.056Z,100797.59
2022-12-09T09:26:06.359Z,100797.47
2022-12-09T09:29:09.914Z,100798.09
2022-12-09T09:32:14.529Z,100801.44
2022-12-09T09:35:18.213Z,100798.47
2022-12-09T09:38:21.867Z,100798.19
2022-12-09T09:41:43.606Z,100802.38
2022-12-09T09:44:49.400Z,100801.22
2022-12-09T09:47:57.698Z,100800.16
2022-12-09T09:51:06.525Z,100804.38
2022-12-09T09:54:13.196Z,100791.03
2022-12-09T09:57:22.169Z,100793.53
2022-12-09T10:00:29.937Z,100791.81
2022-12-09T10:03:48.209Z,100786.50
2022-12-09T10:07:04.119Z,100782.97
2022-12-09T10:10:21.968Z,100784.84
2022-12-09T10:13:40.905Z,100789.28
2022-12-09T10:16:46.619Z,100785.84
2022-12-09T10:19:56.263Z,100782.31
2022-12-09T10:23:03.164Z,100782.38
2022-12-09T10:26:12.512Z,100783.41
2022-12-09T10:29:20.699Z,100782.53
2022-12-09T10:32:27.866Z,100780.91
2022-12-09T10:35:32.969Z,100770.31
2022-12-09T10:38:42.610Z,100773.91
2022-12-09T10:42:07.132Z,100781.03
2022-12-09T10:45:11.558Z,100773.03
2022-12-09T10:48:23.086Z,100777.50
2022-12-09T10:51:31.189Z,100781.94
2022-12-09T10:54:37.924Z,100774.91
2022-12-09T10:57:41.345Z,100777.66
2022-12-09T11:00:44.776Z,100775.03
2022-12-09T11:03:53.604Z,100776.00
2022-12-09T11:07:02.369Z,100769.88
2022-12-09T11:10:17.167Z,100771.69
2022-12-09T11:13:23.211Z,100761.13
2022-12-09T11:16:28.970Z,100748.72
2022-12-09T11:19:36.177Z,100758.50
2022-12-09T11:22:42.401Z,100754.13
2022-12-09T11:25:54.812Z,100757.66
2022-12-09T11:29:04.611Z,100756.78
2022-12-09T11:32:14.497Z,100756.88
2022-12-09T11:35:19.060Z,100757.78
2022-12-09T11:38:34.532Z,100753.44
2022-12-09T11:41:55.270Z,100749.91
2022-12-09T11:45:01.621Z,100752.59
2022-12-09T11:48:31.864Z,100746.38
2022-12-09T11:51:34.382Z,100744.56
2022-12-09T11:54:45.279Z,100744.50
2022-12-09T11:57:52.424Z,100747.94
2022-12-09T12:01:01.723Z,100743.41
2022-12-09T12:04:09.225Z,100739.75
2022-12-09T12:07:17.300Z,100739.69
2022-12-09T12:10:26.023Z,100743.13
2022-12-09T12:13:32.431Z,100744.88
2022-12-09T12:16:56.339Z,100735.09
2022-12-09T12:19:59.383Z,100739.53
2022-12-09T12:23:17.187Z,100734.22
2022-12-09T12:26:25.940Z,100740.41
2022-12-09T12:29:40.526Z,100744.88
2022-12-09T12:36:29.827Z,100732.47
2022-12-09T12:39:44.853Z,100723.72
2022-12-09T12:43:32.091Z,100729.03
2022-12-09T12:46:48.213Z,100731.78
2022-12-09T12:50:30.876Z,100730.91
2022-12-09T12:53:43.234Z,100727.44
2022-12-09T12:56:52.563Z,100727.44
2022-12-09T13:00:02.628Z,100732.78
2022-12-09T13:03:18.514Z,100731.84
2022-12-09T13:06:25.287Z,100728.41
2022-12-09T13:09:35.992Z,100724.00
2022-12-09T13:12:58.581Z,100724.00
2022-12-09T13:16:11.316Z,100725.75
2022-12-09T13:19:23.191Z,100721.25
2022-12-09T13:22:31.749Z,100719.56
2022-12-09T13:25:42.756Z,100717.75
2022-12-09T13:28:53.338Z,100715.09
2022-12-09T13:32:02.961Z,100717.75
2022-12-09T13:35:13.402Z,100720.44
2022-12-09T13:38:28.471Z,100710.63
2022-12-09T13:42:00.382Z,100715.94
2022-12-09T13:45:07.777Z,100715.94
2022-12-09T13:48:53.098Z,100710.63
2022-12-09T13:51:57.939Z,100707.91
2022-12-09T13:55:01.055Z,100721.22
2022-12-09T13:58:35.614Z,100716.69
2022-12-09T14:01:45.169Z,100718.38
2022-12-09T14:05:00.458Z,100730.78
2022-12-09T14:08:17.735Z,100733.44
2022-12-09T14:11:48.380Z,100736.09
2022-12-09T14:14:52.766Z,100736.97
2022-12-09T14:18:02.279Z,100750.19
2022-12-09T14:21:26.649Z,100744.88
2022-12-09T14:24:36.648Z,100750.19
2022-12-09T14:27:39.641Z,100746.56
2022-12-09T14:30:51.568Z,100746.56
2022-12-09T14:33:54.734Z,100740.34
2022-12-09T14:37:07.152Z,100741.25
2022-12-09T14:40:26.291Z,100753.63
2022-12-09T14:43:50.379Z,100760.75
2022-12-09T14:47:14.608Z,100758.94
2022-12-09T14:50:21.026Z,100749.22
2022-12-09T14:53:26.311Z,100753.63
2022-12-09T14:56:33.752Z,100749.19
2022-12-09T14:59:37.161Z,100744.69
2022-12-09T15:02:40.219Z,100749.22
2022-12-09T15:05:54.904Z,100748.31
2022-12-09T15:08:59.623Z,100753.63
2022-12-09T15:12:09.658Z,100742.03
2022-12-09T15:15:16.657Z,100752.75
2022-12-09T15:18:22.353Z,100756.28
2022-12-09T15:21:29.676Z,100758.94
2022-12-09T15:24:49.350Z,100759.88
2022-12-09T15:28:00.322Z,100762.53
2022-12-09T15:31:06.236Z,100767.84
2022-12-09T15:34:15.418Z,100757.22
2022-12-09T15:37:20.982Z,100762.53
2022-12-09T15:40:29.150Z,100759.03
2022-12-09T15:43:36.111Z,100759.94
2022-12-09T15:46:42.249Z,100761.75
2022-12-09T15:49:50.409Z,100766.16
2022-12-09T15:52:57.259Z,100766.16
2022-12-09T15:56:03.533Z,100772.34
2022-12-09T15:59:12.113Z,100775.03
2022-12-09T16:02:23.625Z,100768.81
2022-12-09T16:05:27.086Z,100773.19
2022-12-09T16:08:35.127Z,100767.84
2022-12-09T16:11:40.454Z,100761.69
2022-12-09T16:14:45.737Z,100769.59
2022-12-09T16:17:54.829Z,100775.78
2022-12-09T16:21:09.709Z,100773.19
2022-12-09T16:24:14.376Z,100779.28
2022-12-09T16:27:20.456Z,100779.28
2022-12-09T16:30:27.126Z,100785.47
2022-12-09T16:33:35.151Z,100785.41
2022-12-09T16:36:38.154Z,100783.69
2022-12-09T16:39:41.302Z,100779.22
2022-12-09T16:42:44.349Z,100778.28
2022-12-09T16:45:50.779Z,100782.81
2022-12-09T16:48:53.771Z,100778.38
2022-12-09T16:51:57.999Z,100781.94
2022-12-09T16:55:01.008Z,100781.94
2022-12-09T16:58:04.193Z,100779.28
2022-12-09T17:01:14.221Z,100776.63
2022-12-09T17:04:20.479Z,100776.63
2022-12-09T17:07:23.552Z,100772.16
2022-12-09T17:10:26.557Z,100773.97
2022-12-09T17:13:29.697Z,100773.97
2022-12-09T17:16:35.901Z,100766.06
2022-12-09T17:19:42.308Z,100767.81
2022-12-09T17:22:45.543Z,100772.25
2022-12-09T17:25:57.072Z,100762.47
2022-12-09T17:29:02.087Z,100770.50
2022-12-09T17:32:07.137Z,100767.84
2022-12-09T17:35:12.783Z,100777.66
2022-12-09T17:38:16.078Z,100773.19
2022-12-09T17:41:23.529Z,100769.69
2022-12-09T17:44:26.657Z,100773.19
2022-12-09T17:47:31.048Z,100777.66
2022-12-09T17:50:34.121Z,100782.09
2022-12-09T17:53:37.652Z,100782.09
2022-12-09T17:56:40.756Z,100782.97
2022-12-09T17:59:43.801Z,100777.66
2022-12-09T18:02:48.180Z,100785.63
2022-12-09T18:05:51.370Z,100793.63
2022-12-09T18:08:54.699Z,100792.75
2022-12-09T18:11:57.589Z,100788.34
2022-12-09T18:15:00.662Z,100791.00
2022-12-09T18:18:05.340Z,100794.47
2022-12-09T18:21:15.140Z,100790.88
2022-12-09T18:24:19.118Z,100793.53
2022-12-09T18:27:22.250Z,100790.00
2022-12-09T18:30:25.266Z,100796.28
2022-12-09T18:33:29.677Z,100792.75
2022-12-09T18:36:32.701Z,100801.59
2022-12-09T18:39:35.747Z,100798.94
2022-12-09T18:42:38.803Z,100801.66
2022-12-09T18:45:41.868Z,100798.97
2022-12-09T18:48:46.299Z,100792.81
2022-12-09T18:51:50.864Z,100801.66
2022-12-09T18:54:53.930Z,100801.66
2022-12-09T18:57:56.931Z,100806.03
2022-12-09T19:00:59.943Z,100803.38
2022-12-09T19:04:05.095Z,100810.50
2022-12-09T19:07:08.574Z,100809.63
2022-12-09T19:10:11.561Z,100810.56
2022-12-09T19:13:14.567Z,100810.56
2022-12-09T19:16:18.218Z,100817.69
2022-12-09T19:19:24.325Z,100816.81
2022-12-09T19:22:27.291Z,100817.75
2022-12-09T19:25:30.298Z,100830.13
2022-12-09T19:28:33.301Z,100828.41
2022-12-09T19:31:38.008Z,100835.44
2022-12-09T19:34:42.572Z,100836.31
2022-12-09T19:37:45.666Z,100830.13
2022-12-09T19:40:48.659Z,100825.75
2022-12-09T19:43:55.375Z,100833.72
2022-12-09T19:46:58.373Z,100833.72
2022-12-09T19:50:02.831Z,100836.38
2022-12-09T19:53:05.824Z,100831.97
2022-12-09T19:56:11.534Z,100834.72
2022-12-09T19:59:15.178Z,100829.41
2022-12-09T20:02:18.133Z,100830.31
2022-12-09T20:05:22.684Z,100828.53
2022-12-09T20:08:25.695Z,100828.53
2022-12-09T20:11:29.450Z,100830.28
2022-12-09T20:14:32.470Z,100830.28
2022-12-09T20:17:35.496Z,100836.44
2022-12-09T20:20:44.237Z,100834.66
2022-12-09T20:23:51.586Z,100835.59
2022-12-09T20:26:55.944Z,100841.84
2022-12-09T20:29:58.985Z,100842.78
2022-12-09T20:33:02.031Z,100838.31
2022-12-09T20:36:11.278Z,100841.84
2022-12-09T20:39:16.179Z,100836.50
2022-12-09T20:42:19.132Z,100837.47
2022-12-09T20:45:22.180Z,100832.97
2022-12-09T20:48:25.159Z,100845.38
2022-12-09T20:51:31.950Z,100840.91
2022-12-09T20:54:34.999Z,100839.97
2022-12-09T20:57:37.990Z,100840.91
2022-12-09T21:00:41.010Z,100844.50
2022-12-09T21:03:44.862Z,100849.81
2022-12-09T21:06:49.851Z,100845.44
2022-12-09T21:09:52.903Z,100849.03
2022-12-09T21:12:56.010Z,100849.91
2022-12-09T21:16:04.828Z,100844.56
2022-12-09T21:19:10.332Z,100840.97
2022-12-09T21:22:14.787Z,100843.63
2022-12-09T21:25:17.954Z,100840.03
2022-12-09T21:28:21.463Z,100843.50
2022-12-09T21:31:26.046Z,100833.72
2022-12-09T21:34:29.052Z,100835.44
2022-12-09T21:37:33.604Z,100844.22
2022-12-09T21:40:36.642Z,100847.75
2022-12-09T21:43:40.196Z,100849.53
2022-12-09T21:46:43.442Z,100848.63
2022-12-09T21:49:46.471Z,100849.53
2022-12-09T21:52:50.810Z,100852.19
2022-12-09T21:55:54.155Z,100845.06
2022-12-09T21:58:58.829Z,100833.56
2022-12-09T22:02:02.011Z,100834.53
2022-12-09T22:05:05.863Z,100846.88
2022-12-09T22:08:10.381Z,100845.06
2022-12-09T22:11:16.171Z,100845.94
2022-12-09T22:14:19.307Z,100844.22
2022-12-09T22:17:22.276Z,100841.53
2022-12-09T22:23:49.912Z,100835.44
2022-12-09T22:26:52.886Z,100843.41
2022-12-09T22:29:55.917Z,100837.22
2022-12-09T22:32:59.016Z,100839.03
2022-12-09T22:36:05.059Z,100839.03
2022-12-09T22:39:12.896Z,100833.72
2022-12-09T22:42:16.048Z,100837.22
2022-12-09T22:45:19.010Z,100839.03
2022-12-09T22:48:22.063Z,100839.03
2022-12-09T22:51:26.839Z,100839.03
2022-12-09T22:54:31.652Z,100847.94
2022-12-09T22:57:34.667Z,100843.50
2022-12-09T23:00:37.690Z,100848.91
2022-12-09T23:03:40.902Z,100834.72
2022-12-09T23:06:45.144Z,100840.91
2022-12-09T23:09:50.312Z,100846.25
2022-12-09T23:12:53.381Z,100846.25
2022-12-09T23:15:56.507Z,100839.09
2022-12-09T23:19:00.366Z,100837.31
2022-12-09T23:22:03.447Z,100841.91
2022-12-09T23:25:09.770Z,100840.25
2022-12-09T23:28:12.767Z,100844.78
2022-12-09T23:31:17.155Z,100835.00
2022-12-09T23:34:20.451Z,100842.03
2022-12-09T23:37:23.627Z,100832.97
2022-12-09T23:40:28.065Z,100837.31
2022-12-09T23:43:32.307Z,100840.84
2022-12-09T23:46:35.307Z,100847.81
2022-12-09T23:49:38.464Z,100838.06
2022-12-09T23:52:41.393Z,100837.03
2022-12-09T23:55:45.834Z,100846.75
2022-12-09T23:58:49.581Z,100844.09
